Time;durP1;ratioP1;P1;durP2;ratioP2;P2;SDS_P1;SDS_P2;PMS_P1;PMS_P2;Temp;Humidity;BMP_temperature;BMP_pressure;BME280_temperature;BME280_humidity;BME280_pressure;Samples;Min_cycle;Max_cycle;Signal;HPM_P1;HPM_P2
2022/03/20 05:01:23;;;;;;;58.27;25.83;;;;;;;0.30;62.69;103517.56;5020801;57;1138949;-70
2022/03/20 05:06:30;;;;;;;54.13;24.40;;;;;;;0.31;62.88;103517.98;5048287;57;1138981;-71
2022/03/20 05:17:00;;;;;;;68.50;26.27;;;;;;;0.27;63.16;103509.71;5061414;55;1138900;-70
2022/03/20 05:22:11;;;;;;;52.90;25.60;;;;;;;0.28;63.16;103514.49;5093731;55;1138980;-70
2022/03/20 05:27:17;;;;;;;59.57;26.70;;;;;;;0.30;63.31;103523.20;5048964;56;1139032;-70
2022/03/20 05:32:23;;;;;;;61.80;23.40;;;;;;;0.38;63.27;103527.19;5067420;56;1138876;-70
2022/03/20 05:37:29;;;;;;;53.83;24.87;;;;;;;0.34;62.93;103531.47;5117847;56;1210191;-69
2022/03/20 05:42:41;;;;;;;71.97;28.32;;;;;;;0.32;63.31;103539.26;5125519;55;1140611;-69
2022/03/20 05:47:43;;;;;;;73.52;28.55;;;;;;;0.42;63.64;103535.48;5121650;56;1139141;-70
2022/03/20 05:52:49;;;;;;;72.65;30.75;;;;;;;0.55;63.52;103549.10;5110277;55;1138906;-69
2022/03/20 05:58:03;;;;;;;71.82;31.50;;;;;;;0.71;63.80;103558.86;5047110;56;1139153;-69
2022/03/20 06:03:11;;;;;;;68.93;27.40;;;;;;;0.90;64.04;103563.42;5103885;55;1138873;-70
2022/03/20 06:08:19;;;;;;;63.10;26.40;;;;;;;1.15;63.81;103554.12;5083038;55;1138807;-70
2022/03/20 06:13:25;;;;;;;61.47;25.90;;;;;;;1.44;62.32;103554.39;5083652;55;1138894;-69
2022/03/20 06:18:31;;;;;;;60.37;30.70;;;;;;;1.69;62.14;103557.63;5058300;55;1138956;-71
2022/03/20 06:23:45;;;;;;;66.27;33.43;;;;;;;1.96;60.42;103557.41;5056151;55;1148441;-70
2022/03/20 06:28:45;;;;;;;67.20;29.67;;;;;;;2.13;59.70;103566.23;5050263;56;1138783;-70
2022/03/20 06:33:53;;;;;;;66.10;31.70;;;;;;;2.28;58.76;103571.55;5075891;56;1138826;-69
2022/03/20 06:39:00;;;;;;;62.27;28.87;;;;;;;2.52;59.83;103568.17;5119254;55;1139167;-70
2022/03/20 06:44:06;;;;;;;49.10;26.43;;;;;;;2.79;59.26;103574.80;5110142;55;1138733;-69
2022/03/20 06:49:12;;;;;;;59.93;30.07;;;;;;;3.04;58.70;103570.98;5110394;55;1138709;-69
2022/03/20 06:54:20;;;;;;;42.93;18.50;;;;;;;3.22;56.52;103583.19;5103081;55;1138726;-69
2022/03/20 06:59:25;;;;;;;57.80;27.43;;;;;;;3.24;57.20;103570.99;5117934;56;1138895;-69
2022/03/20 07:04:32;;;;;;;55.30;28.00;;;;;;;3.48;56.84;103590.23;5102632;56;1139053;-72
2022/03/20 07:09:38;;;;;;;50.43;23.33;;;;;;;3.69;56.47;103594.58;5114194;55;1144508;-71
2022/03/20 07:14:45;;;;;;;63.25;27.30;;;;;;;3.88;55.51;103598.08;5109869;56;1138938;-71
2022/03/20 07:19:52;;;;;;;74.93;31.57;;;;;;;4.06;54.82;103594.58;5066244;55;1138809;-71
2022/03/20 07:29:29;;;;;;;60.03;27.13;;;;;;;4.30;53.83;103584.47;5107212;55;1138845;-71
2022/03/20 07:30:07;;;;;;;65.00;28.00;;;;;;;4.56;52.79;103584.84;5037510;55;1138709;-69
2022/03/20 07:35:13;;;;;;;42.57;19.20;;;;;;;4.79;53.63;103584.73;5085552;56;1138690;-69
2022/03/20 07:40:21;;;;;;;51.30;27.07;;;;;;;4.99;51.12;103575.91;5112599;55;1138666;-70
2022/03/20 07:45:26;;;;;;;53.77;25.73;;;;;;;5.10;50.21;103576.27;5108955;55;1138797;-70
2022/03/20 07:50:32;;;;;;;53.20;25.13;;;;;;;5.31;48.63;103573.96;5054980;56;1139020;-69
2022/03/20 07:55:38;;;;;;;44.88;22.48;;;;;;;5.50;50.44;103567.67;5124756;55;1139712;-70
2022/03/20 08:00:43;;;;;;;51.10;23.45;;;;;;;5.72;48.32;103571.00;5083869;56;1139137;-71
2022/03/20 08:05:50;;;;;;;45.85;20.82;;;;;;;5.89;47.92;103576.14;5098613;56;1138754;-69
2022/03/20 08:10:56;;;;;;;44.23;21.83;;;;;;;6.09;48.59;103570.27;5096557;55;1138918;-68
2022/03/20 08:16:04;;;;;;;44.63;21.90;;;;;;;6.34;46.73;103569.55;5112093;55;1138696;-68
2022/03/20 08:21:13;;;;;;;33.03;19.37;;;;;;;6.65;46.34;103569.61;5048325;55;1138950;-69
2022/03/20 08:26:19;;;;;;;34.30;18.47;;;;;;;6.96;46.46;103557.36;5041915;56;1138975;-71
2022/03/20 08:31:25;;;;;;;64.27;31.20;;;;;;;7.18;42.69;103561.89;5067056;56;1139076;-71
2022/03/20 08:36:31;;;;;;;47.97;22.07;;;;;;;7.33;42.49;103555.08;5055894;55;1138740;-69
2022/03/20 08:41:38;;;;;;;33.67;18.00;;;;;;;7.36;43.29;103549.28;5063841;55;1148554;-68
2022/03/20 08:46:44;;;;;;;35.10;17.47;;;;;;;7.61;41.41;103554.17;5071923;56;1138855;-72
2022/03/20 08:51:49;;;;;;;31.30;15.18;;;;;;;7.79;40.39;103553.86;5095927;55;1138873;-69
2022/03/20 08:56:56;;;;;;;30.08;14.20;;;;;;;7.81;38.29;103551.17;5129740;56;1139086;-71
2022/03/20 09:02:02;;;;;;;23.40;12.63;;;;;;;7.97;36.93;103543.41;5118773;56;1138880;-68
2022/03/20 09:07:08;;;;;;;24.77;13.27;;;;;;;8.20;35.58;103533.32;5113610;56;1138967;-67
2022/03/20 09:12:13;;;;;;;22.07;12.43;;;;;;;8.39;34.97;103538.69;5108198;56;1138998;-71
2022/03/20 09:22:42;;;;;;;;;;;;;;;8.63;34.46;103529.38;5163711;55;1138846;-71
2022/03/20 09:27:51;;;;;;;21.97;12.28;;;;;;;8.67;31.58;103520.50;5078487;56;972019;-71
2022/03/20 09:32:56;;;;;;;74.90;30.77;;;;;;;8.71;33.44;103519.96;5004274;57;1136751;-72
2022/03/20 09:38:04;;;;;;;21.73;12.07;;;;;;;8.92;31.19;103515.53;5004896;56;1139099;-73
2022/03/20 09:43:10;;;;;;;23.87;10.77;;;;;;;9.03;28.90;103520.11;5063765;55;1138845;-74
2022/03/20 09:48:17;;;;;;;18.30;10.47;;;;;;;9.15;31.73;103524.26;5076631;55;1138779;-71
2022/03/20 09:53:23;;;;;;;22.70;10.87;;;;;;;9.27;29.44;103512.07;5056179;55;1139015;-70
2022/03/20 09:58:30;;;;;;;25.20;12.37;;;;;;;9.42;30.04;103513.02;5044897;55;1138849;-71
2022/03/20 10:03:36;;;;;;;21.03;11.13;;;;;;;9.53;29.21;103513.60;5084581;54;1139196;-71
2022/03/20 10:09:04;;;;;;;22.03;10.87;;;;;;;9.59;28.63;103505.98;5062072;55;1138992;-71
2022/03/20 10:14:22;;;;;;;20.57;12.03;;;;;;;9.67;28.78;103501.35;5126195;55;1138980;-72
2022/03/20 10:19:30;;;;;;;18.03;10.60;;;;;;;9.72;30.00;103495.50;5092299;55;1140827;-73
2022/03/20 10:24:39;;;;;;;19.32;11.38;;;;;;;9.88;26.95;103497.28;5061875;55;1140915;-73
2022/03/20 10:29:56;;;;;;;23.15;12.28;;;;;;;9.95;27.88;103501.47;5048405;56;1141028;-71
2022/03/20 10:35:06;;;;;;;19.87;11.20;;;;;;;10.09;27.99;103491.83;5030278;57;1140809;-72
2022/03/20 10:40:20;;;;;;;27.50;13.23;;;;;;;10.15;27.54;103485.92;5027998;57;1142940;-72
2022/03/20 10:45:26;;;;;;;17.90;10.55;;;;;;;10.24;28.83;103482.17;5019802;57;1143030;-71
2022/03/20 10:50:32;;;;;;;26.93;13.90;;;;;;;10.42;28.33;103465.76;5034332;57;1142843;-71
2022/03/20 10:55:38;;;;;;;24.00;11.63;;;;;;;10.45;28.24;103464.80;5022636;56;1142955;-72
2022/03/20 11:00:47;;;;;;;18.98;11.48;;;;;;;10.67;28.70;103465.90;5117273;55;1142972;-72
2022/03/20 11:05:54;;;;;;;17.60;10.63;;;;;;;10.83;27.60;103459.21;5118811;55;1143021;-72
2022/03/20 11:11:02;;;;;;;17.80;12.23;;;;;;;10.88;26.68;103447.13;5117847;56;1143113;-72
2022/03/20 11:16:09;;;;;;;22.30;11.90;;;;;;;10.90;25.68;103445.30;5052469;55;1142976;-72
2022/03/20 11:21:16;;;;;;;25.53;15.07;;;;;;;10.82;25.74;103442.91;5053760;55;1142948;-73
2022/03/20 11:26:23;;;;;;;15.77;10.27;;;;;;;10.84;26.36;103450.35;5080992;55;1143363;-72
2022/03/20 11:31:35;;;;;;;23.40;12.15;;;;;;;10.88;24.51;103444.02;5106850;55;1143212;-72
2022/03/20 11:37:09;;;;;;;22.20;11.43;;;;;;;10.96;24.78;103440.27;5112767;55;1143045;-72
2022/03/20 11:42:25;;;;;;;;;;;;;;;11.10;26.50;103435.38;4794316;58;1143268;-73
2022/03/20 11:47:32;;;;;;;23.83;14.03;;;;;;;11.26;25.27;103424.22;4665099;61;976229;-72
2022/03/20 11:53:00;;;;;;;19.07;11.37;;;;;;;11.35;24.98;103414.21;4677111;61;1141112;-72
2022/03/20 11:58:24;;;;;;;18.17;11.07;;;;;;;11.45;26.06;103400.61;4797300;59;1143163;-72
2022/03/20 12:03:48;;;;;;;22.73;11.35;;;;;;;11.57;24.33;103395.32;4826587;59;1143153;-72
2022/03/20 12:09:04;;;;;;;20.60;12.75;;;;;;;11.49;24.80;103390.73;4673085;59;1143218;-72
2022/03/20 12:14:39;;;;;;;17.60;10.87;;;;;;;11.61;25.65;103383.20;4782973;58;1143558;-71
2022/03/20 12:19:53;;;;;;;19.42;11.20;;;;;;;11.70;26.00;103381.16;5041925;55;1143185;-72
2022/03/20 12:25:03;;;;;;;23.23;11.67;;;;;;;12.01;24.72;103375.14;5076196;55;1143001;-72
2022/03/20 12:30:21;;;;;;;19.40;11.33;;;;;;;12.06;24.74;103361.25;5071611;55;1143086;-72
2022/03/20 12:35:32;;;;;;;18.73;10.97;;;;;;;12.07;24.13;103351.50;5118284;55;1142966;-71
2022/03/20 12:40:38;;;;;;;16.50;9.93;;;;;;;12.11;24.42;103349.98;5051978;55;1142954;-74
2022/03/20 12:45:55;;;;;;;31.35;19.80;;;;;;;12.09;23.69;103345.19;5040217;56;1140973;-72
2022/03/20 12:51:12;;;;;;;17.27;10.43;;;;;;;12.14;24.07;103342.37;5089804;55;1143042;-72
2022/03/20 12:56:24;;;;;;;21.80;13.33;;;;;;;12.22;24.66;103331.84;5079845;56;1143178;-71
2022/03/20 13:01:26;;;;;;;24.90;11.57;;;;;;;12.36;23.47;103335.76;5088975;55;1143072;-72
2022/03/20 13:06:31;;;;;;;18.40;10.07;;;;;;;12.25;23.00;103322.90;5061263;54;1143005;-72
2022/03/20 13:11:52;;;;;;;15.73;9.53;;;;;;;12.30;22.76;103323.59;5107880;55;1143119;-72
2022/03/20 13:17:04;;;;;;;29.82;15.43;;;;;;;12.24;22.67;103312.74;5058216;55;1141022;-71
2022/03/20 13:22:16;;;;;;;26.50;14.90;;;;;;;12.26;23.06;103319.32;5072336;55;1240059;-72
2022/03/20 13:27:22;;;;;;;21.20;11.97;;;;;;;12.28;24.00;103295.78;5071410;55;1143129;-72
2022/03/20 13:32:28;;;;;;;21.30;13.13;;;;;;;12.40;23.94;103297.06;5063088;56;1143070;-72
2022/03/20 13:37:33;;;;;;;23.20;12.30;;;;;;;12.38;24.85;103293.61;5060038;54;1143243;-72
2022/03/20 13:42:43;;;;;;;45.80;29.37;;;;;;;12.36;24.86;103278.70;5099796;55;1143029;-72
2022/03/20 13:47:50;;;;;;;17.47;12.47;;;;;;;12.44;24.45;103273.45;5064014;55;1143197;-71
2022/03/20 13:52:56;;;;;;;19.77;12.40;;;;;;;12.50;24.19;103267.05;5108480;56;1143172;-71
2022/03/20 13:58:05;;;;;;;21.03;12.80;;;;;;;12.44;24.54;103260.65;5110508;56;1143452;-71
2022/03/20 14:03:11;;;;;;;34.13;19.77;;;;;;;12.54;24.86;103254.88;5042658;56;1143096;-71
2022/03/20 14:08:19;;;;;;;17.53;12.00;;;;;;;12.62;24.56;103253.24;5054954;56;1142992;-72
2022/03/20 14:13:37;;;;;;;25.00;13.30;;;;;;;12.61;24.21;103248.40;5104498;55;1142967;-71
2022/03/20 14:18:56;;;;;;;21.80;12.97;;;;;;;12.52;24.06;103241.30;5094686;55;1152688;-72
2022/03/20 14:24:12;;;;;;;20.63;10.97;;;;;;;12.60;25.32;103237.38;5102464;56;1143045;-72
2022/03/20 14:40:12;;;;;;;19.90;9.73;;;;;;;12.64;23.34;103227.50;5086949;56;1140810;-72
2022/03/20 14:45:22;;;;;;;15.03;9.07;;;;;;;12.65;23.14;103223.91;5101098;56;1140879;-71
2022/03/20 14:50:28;;;;;;;15.63;8.63;;;;;;;12.61;22.68;103213.88;5103597;56;1140868;-72
2022/03/20 14:55:34;;;;;;;13.70;9.27;;;;;;;12.58;22.22;103210.48;5086231;56;1140852;-72
2022/03/20 15:00:41;;;;;;;31.67;18.47;;;;;;;12.52;22.29;103201.48;5072872;56;1140867;-72
2022/03/20 15:05:47;;;;;;;15.25;9.50;;;;;;;12.57;22.41;103202.98;5074549;55;1143130;-72
2022/03/20 15:16:16;;;;;;;21.62;17.37;;;;;;;12.48;23.12;103190.59;5087879;55;1140780;-72
2022/03/20 15:21:22;;;;;;;18.67;10.93;;;;;;;12.45;22.35;103186.27;5054354;56;1143308;-72
2022/03/20 15:26:28;;;;;;;18.67;9.60;;;;;;;12.42;22.71;103186.39;5086697;56;1142863;-71
2022/03/20 15:31:37;;;;;;;18.30;7.87;;;;;;;12.36;22.46;103189.80;5046505;56;1140867;-72
2022/03/20 15:36:47;;;;;;;13.70;7.17;;;;;;;12.34;22.54;103180.56;5047728;57;1141202;-72
2022/03/20 15:41:53;;;;;;;20.05;8.88;;;;;;;12.29;22.12;103178.09;5044652;56;1140965;-72
2022/03/20 15:46:59;;;;;;;47.90;22.22;;;;;;;12.27;22.83;103182.60;5043353;57;1141011;-72
2022/03/20 15:52:05;;;;;;;17.77;9.73;;;;;;;12.26;23.50;103174.23;5134499;55;1143113;-72
2022/03/20 15:57:11;;;;;;;15.07;8.67;;;;;;;12.19;22.93;103175.45;5140494;55;1141157;-72
2022/03/20 16:02:16;;;;;;;25.17;10.67;;;;;;;12.12;22.52;103167.79;5129047;55;1140968;-72
2022/03/20 16:07:22;;;;;;;36.65;17.02;;;;;;;12.05;22.94;103170.31;5127776;56;1143154;-71
2022/03/20 16:12:30;;;;;;;27.15;14.10;;;;;;;12.03;23.32;103169.05;5095096;55;1143184;-72
2022/03/20 16:17:40;;;;;;;16.63;9.57;;;;;;;12.01;23.82;103173.55;5090792;55;1143171;-71
2022/03/20 16:33:36;;;;;;;21.05;12.82;;;;;;;11.71;23.81;103166.81;5145797;55;1143010;-72
2022/03/20 16:38:44;;;;;;;21.50;9.53;;;;;;;11.57;24.07;103164.72;5146041;55;1143151;-72
2022/03/20 16:43:49;;;;;;;30.67;16.20;;;;;;;11.44;24.32;103170.09;5133706;55;1140998;-72
2022/03/20 16:48:55;;;;;;;17.30;9.60;;;;;;;11.31;24.59;103173.66;5139433;55;1143018;-72
2022/03/20 16:54:02;;;;;;;16.87;10.63;;;;;;;11.16;25.24;103173.78;5146168;55;1140932;-72
2022/03/20 16:59:08;;;;;;;993.03;500.97;;;;;;;11.04;25.20;103176.03;5144780;55;1143066;-72
2022/03/20 17:04:16;;;;;;;162.70;82.50;;;;;;;10.84;25.17;103173.69;5110559;55;1147318;-73
2022/03/20 17:09:21;;;;;;;292.63;165.67;;;;;;;10.70;24.82;103171.96;5135365;55;1145260;-72
2022/03/20 17:14:26;;;;;;;82.57;42.77;;;;;;;10.52;25.55;103172.64;5140323;55;1147248;-71
2022/03/20 17:19:32;;;;;;;42.90;22.00;;;;;;;10.39;25.83;103178.79;5132292;55;1143145;-71
2022/03/20 17:24:38;;;;;;;43.87;13.33;;;;;;;10.23;25.98;103184.69;5138921;55;1142926;-73
2022/03/20 17:29:44;;;;;;;20.03;10.97;;;;;;;10.11;26.14;103184.12;5126017;55;1143117;-72
2022/03/20 17:34:50;;;;;;;20.95;11.33;;;;;;;9.99;26.34;103191.14;5096720;55;1143197;-72
2022/03/20 17:39:56;;;;;;;35.17;20.00;;;;;;;9.87;26.69;103185.80;5109692;55;1140991;-72
2022/03/20 17:45:04;;;;;;;61.53;30.83;;;;;;;9.77;26.96;103187.47;5099669;54;1141286;-71
2022/03/20 17:50:11;;;;;;;52.63;29.13;;;;;;;9.69;27.57;103189.47;5086081;55;1138849;-70
2022/03/20 17:55:18;;;;;;;31.80;19.23;;;;;;;9.62;27.64;103186.63;5137765;55;1138878;-70
2022/03/20 18:00:23;;;;;;;30.03;14.60;;;;;;;9.55;27.67;103187.27;5137977;55;1138969;-71
2022/03/20 18:10:53;;;;;;;29.48;13.35;;;;;;;9.28;27.96;103182.37;5136890;55;1138800;-71
2022/03/20 18:15:59;;;;;;;26.10;12.13;;;;;;;9.15;28.16;103184.96;5136064;55;1138789;-71
2022/03/20 18:21:04;;;;;;;21.93;11.13;;;;;;;8.97;28.60;103185.48;5141149;55;1138827;-72
2022/03/20 18:26:11;;;;;;;23.93;12.67;;;;;;;8.89;29.04;103189.64;5139955;55;1138795;-71
2022/03/20 18:31:16;;;;;;;29.37;15.33;;;;;;;8.80;29.32;103189.91;5121411;54;1138995;-70
2022/03/20 18:36:23;;;;;;;46.10;17.50;;;;;;;8.69;29.57;103191.98;5107927;55;1138861;-71
2022/03/20 18:41:32;;;;;;;32.47;14.57;;;;;;;8.60;29.82;103195.72;5124026;55;1138784;-71
2022/03/20 18:46:37;;;;;;;28.80;13.53;;;;;;;8.52;30.04;103195.52;5115496;55;1138778;-70
2022/03/20 18:51:43;;;;;;;29.30;13.13;;;;;;;8.42;30.37;103194.88;5135963;55;1138837;-70
2022/03/20 18:56:51;;;;;;;38.43;15.17;;;;;;;8.25;30.94;103193.95;5147033;55;1144832;-70
2022/03/20 19:01:58;;;;;;;36.98;16.60;;;;;;;8.25;30.94;103193.95;5099343;55;1138687;-71
2022/03/20 19:07:06;;;;;;;489.40;219.63;;;;;;;8.15;31.01;103199.50;5054510;56;1139062;-70
2022/03/20 19:12:13;;;;;;;215.23;99.97;;;;;;;8.04;31.42;103204.59;5105941;55;1142921;-71
2022/03/20 19:17:19;;;;;;;47.83;27.00;;;;;;;7.98;31.59;103211.32;5145028;55;1140845;-70
2022/03/20 19:22:25;;;;;;;34.23;15.43;;;;;;;7.89;31.87;103204.96;5127895;55;1138792;-70
2022/03/20 19:27:31;;;;;;;28.67;15.47;;;;;;;7.82;32.06;103205.99;5140934;55;1138665;-71
2022/03/20 19:32:39;;;;;;;39.13;16.33;;;;;;;7.75;32.31;103208.37;5128398;55;1139011;-70
2022/03/20 19:43:08;;;;;;;62.60;26.65;;;;;;;7.58;32.71;103216.65;5121751;55;1138709;-72
2022/03/20 19:48:14;;;;;;;67.83;31.83;;;;;;;7.50;32.99;103220.33;5109680;55;1148428;-71
2022/03/20 19:53:23;;;;;;;59.67;27.60;;;;;;;7.43;33.10;103224.02;5141423;55;1138930;-70
2022/03/20 19:58:28;;;;;;;65.30;25.67;;;;;;;7.37;33.30;103220.59;5096877;55;1138814;-69
2022/03/20 20:03:34;;;;;;;58.27;22.70;;;;;;;7.32;33.50;103222.48;5146950;55;1138806;-70
2022/03/20 20:08:40;;;;;;;75.97;27.57;;;;;;;7.24;33.67;103224.39;5142386;55;1138831;-70
2022/03/20 20:19:10;;;;;;;50.43;20.43;;;;;;;7.12;34.05;103216.75;5141802;55;1139057;-70
2022/03/20 20:24:17;;;;;;;55.30;21.07;;;;;;;7.01;34.40;103217.42;5125920;55;1138704;-70
2022/03/20 20:29:23;;;;;;;53.13;19.90;;;;;;;6.89;34.48;103220.27;5145756;55;1138919;-70
2022/03/20 20:34:30;;;;;;;81.17;32.73;;;;;;;6.79;34.68;103218.27;5130652;56;1138885;-70
2022/03/20 20:39:38;;;;;;;82.43;36.33;;;;;;;6.69;34.85;103225.47;5136841;55;1138897;-70
2022/03/20 20:44:44;;;;;;;84.03;32.27;;;;;;;6.65;35.12;103218.97;5118176;56;1139080;-69
2022/03/20 20:49:50;;;;;;;109.90;34.37;;;;;;;6.54;35.39;103220.48;5119779;55;1139422;-70
2022/03/20 20:54:55;;;;;;;81.10;28.35;;;;;;;6.47;35.50;103217.98;5099144;56;1141271;-70
2022/03/20 21:00:01;;;;;;;93.45;27.77;;;;;;;6.44;35.77;103220.66;5115828;55;1138850;-70
2022/03/20 21:05:08;;;;;;;80.17;24.90;;;;;;;6.34;36.06;103219.95;5128651;55;1138785;-70
2022/03/20 21:15:33;;;;;;;57.17;22.00;;;;;;;6.12;36.52;103218.55;4754920;59;1138929;-70
2022/03/20 21:20:38;;;;;;;40.33;17.07;;;;;;;6.02;36.71;103211.28;4731541;60;1140019;-70
2022/03/20 21:25:44;;;;;;;43.70;17.90;;;;;;;5.92;37.06;103216.26;4792681;59;1138958;-70
2022/03/20 21:30:52;;;;;;;49.90;20.70;;;;;;;5.85;37.22;103213.25;4782288;59;1139051;-70
2022/03/20 21:35:58;;;;;;;47.13;19.15;;;;;;;5.75;37.42;103218.23;4758882;59;1139210;-70
2022/03/20 21:41:04;;;;;;;41.40;19.42;;;;;;;5.64;37.77;103218.39;4635493;61;1139060;-70
2022/03/20 21:46:13;;;;;;;45.77;18.97;;;;;;;5.54;38.13;103212.38;4789626;59;1138980;-70
2022/03/20 21:51:18;;;;;;;55.97;22.07;;;;;;;5.46;38.31;103210.76;4937924;56;1138998;-70
2022/03/20 21:56:24;;;;;;;37.13;16.93;;;;;;;5.39;38.46;103213.03;5142333;56;1138860;-70
2022/03/20 22:01:31;;;;;;;57.37;24.77;;;;;;;5.32;38.72;103207.45;5149299;56;1138956;-70
2022/03/20 22:06:41;;;;;;;45.37;21.27;;;;;;;5.25;38.68;103210.14;5145026;56;1138946;-70
2022/03/20 22:11:44;;;;;;;63.27;22.30;;;;;;;5.20;38.89;103217.63;5145002;55;1138975;-71
2022/03/20 22:16:50;;;;;;;41.47;18.37;;;;;;;5.18;39.00;103214.19;5137806;56;1138935;-70
2022/03/20 22:21:56;;;;;;;37.28;18.52;;;;;;;5.15;39.20;103212.91;5136724;56;1138948;-70
2022/03/20 22:27:01;;;;;;;35.27;18.30;;;;;;;5.09;39.22;103216.89;5143037;56;1138937;-70
2022/03/20 22:32:08;;;;;;;45.48;17.90;;;;;;;5.07;39.21;103204.23;5057014;57;1138757;-70
2022/03/20 22:42:37;;;;;;;37.08;15.00;;;;;;;5.00;39.36;103206.53;5055178;57;1138898;-70
2022/03/20 22:47:44;;;;;;;33.00;15.00;;;;;;;4.94;39.46;103217.50;5053213;57;1138779;-70
2022/03/20 22:52:55;;;;;;;43.30;18.27;;;;;;;4.89;39.62;103214.48;5051664;57;1139024;-71
2022/03/20 22:57:58;;;;;;;31.33;14.43;;;;;;;4.84;39.68;103210.63;5040136;57;1138919;-70
2022/03/20 23:03:04;;;;;;;32.10;15.20;;;;;;;4.79;39.68;103213.73;5059243;57;1139005;-70
2022/03/20 23:08:10;;;;;;;38.08;14.23;;;;;;;4.76;39.78;103205.89;5057338;57;1138882;-69
2022/03/20 23:13:16;;;;;;;32.60;14.50;;;;;;;4.74;39.80;103210.28;5053280;57;1138771;-70
2022/03/20 23:18:22;;;;;;;31.77;15.03;;;;;;;4.73;39.94;103211.63;5049702;57;1138764;-70
2022/03/20 23:23:28;;;;;;;37.40;16.73;;;;;;;4.68;40.10;103207.73;5100695;56;1138915;-70
2022/03/20 23:28:35;;;;;;;34.50;16.40;;;;;;;4.65;40.14;103196.41;5140446;55;1138856;-71
2022/03/20 23:33:42;;;;;;;27.73;14.57;;;;;;;4.62;40.44;103202.98;5110554;56;1138855;-69
2022/03/20 23:38:48;;;;;;;29.23;13.73;;;;;;;4.57;40.44;103207.86;5143263;55;1139013;-69
2022/03/20 23:43:54;;;;;;;32.27;15.23;;;;;;;4.50;40.75;103209.22;5136777;55;1138861;-71
2022/03/20 23:49:00;;;;;;;28.35;13.45;;;;;;;4.43;40.76;103205.78;5133124;55;1148551;-71
2022/03/20 23:54:06;;;;;;;31.67;14.60;;;;;;;4.42;40.82;103208.00;5139900;55;1138947;-70
2022/03/20 23:59:12;;;;;;;30.17;14.27;;;;;;;4.41;40.88;103205.39;5142555;55;1138870;-71
